KMIW/MIW METAR and TAF weather

Enter ICAO airport designator
Station Type Date Time Source
KMIW METAR 2019/02/16 07:53 UTC NOAA

KMIW 160753Z AUTO 35006KT 10SM CLR M18/M20 A3014 RMK AO2 SLP230 T11781200


Station Type Date Time Source
KMIW Decoded METAR 2019/02/16 07:53 UTC NOAA

MARSHALLTOWN MUNICIPAL AIRPORT , IA, United States (KMIW) 42-07N 92-55W 296M
Feb 16, 2019 - 02:53 AM EST / 2019.02.16 0753 UTC
Wind: from the N (350 degrees) at 7 MPH (6 KT):0
Visibility: 10 mile(s):0
Sky conditions: clear
Temperature: -0.0 F (-17.8 C)
Windchill: -13 F (-25 C):2
Dew Point: -4.0 F (-20.0 C)
Relative Humidity: 82%
Pressure (altimeter): 30.14 in. Hg (1020 hPa)
ob: KMIW 160753Z AUTO 35006KT 10SM CLR M18/M20 A3014 RMK AO2 SLP230 T11781200
cycle: 8

Station Type Date Time Source
KMIW TAF UTC NOAA

Error!


Example: see airport list